createdAt,value
2023-04-09T00:01:28.051Z,43.34
2023-04-09T00:03:09.431Z,43.17
2023-04-09T00:04:50.842Z,43.94
2023-04-09T00:06:32.165Z,45.66
2023-04-09T00:08:13.495Z,46.21
2023-04-09T00:09:54.810Z,47.79
2023-04-09T00:11:36.109Z,45.74
2023-04-09T00:13:22.590Z,45.74
2023-04-09T00:15:14.991Z,45.50
2023-04-09T00:17:02.147Z,45.10
2023-04-09T00:18:43.427Z,44.67
2023-04-09T00:20:24.733Z,45.92
2023-04-09T00:22:06.054Z,46.77
2023-04-09T00:23:47.348Z,44.47
2023-04-09T00:25:28.635Z,45.63
2023-04-09T00:27:09.903Z,43.97
2023-04-09T00:28:51.344Z,44.06
2023-04-09T00:30:32.828Z,44.41
2023-04-09T00:32:14.113Z,45.29
2023-04-09T00:33:55.408Z,44.80
2023-04-09T00:35:36.778Z,44.33
2023-04-09T00:37:18.100Z,44.54
2023-04-09T00:38:59.412Z,45.63
2023-04-09T00:40:40.723Z,44.73
2023-04-09T00:42:22.015Z,44.49
2023-04-09T00:44:03.349Z,44.39
2023-04-09T00:45:44.701Z,44.53
2023-04-09T00:47:26.033Z,44.29
2023-04-09T00:49:07.324Z,44.43
2023-04-09T00:50:48.612Z,45.21
2023-04-09T00:52:29.914Z,46.47
2023-04-09T00:54:11.213Z,46.65
2023-04-09T00:55:52.516Z,49.07
2023-04-09T00:57:33.818Z,48.37
2023-04-09T00:59:15.093Z,47.86
2023-04-09T01:00:56.444Z,46.04
2023-04-09T01:02:37.930Z,46.20
2023-04-09T01:04:19.310Z,46.05
2023-04-09T01:06:00.624Z,46.62
2023-04-09T01:07:41.942Z,48.47
2023-04-09T01:09:23.282Z,46.16
2023-04-09T01:11:04.577Z,46.56
2023-04-09T01:12:45.874Z,48.52
2023-04-09T01:14:27.217Z,49.39
2023-04-09T01:16:08.612Z,49.80
2023-04-09T01:17:50.255Z,48.53
2023-04-09T01:19:31.636Z,47.06
2023-04-09T01:21:12.960Z,48.39
2023-04-09T01:22:54.283Z,49.23
2023-04-09T01:24:35.631Z,49.23
2023-04-09T01:26:16.943Z,47.91
2023-04-09T01:27:58.313Z,46.73
2023-04-09T01:29:39.656Z,46.13
2023-04-09T01:31:20.968Z,45.19
2023-04-09T01:33:02.351Z,43.96
2023-04-09T01:34:43.679Z,43.49
2023-04-09T01:36:25.153Z,43.19
2023-04-09T01:38:06.524Z,43.71
2023-04-09T01:39:47.836Z,46.06
2023-04-09T01:41:29.171Z,45.36
2023-04-09T01:43:10.468Z,46.39
2023-04-09T01:44:51.810Z,46.31
2023-04-09T01:46:33.141Z,45.85
2023-04-09T01:48:14.491Z,45.62
2023-04-09T01:49:55.795Z,46.42
2023-04-09T01:51:37.124Z,47.13
2023-04-09T01:53:18.424Z,46.24
2023-04-09T01:54:59.744Z,45.65
2023-04-09T01:56:41.072Z,44.52
2023-04-09T01:58:22.501Z,44.25
2023-04-09T02:00:03.867Z,44.40
2023-04-09T02:01:45.269Z,46.26
2023-04-09T02:03:26.771Z,46.99
2023-04-09T02:05:08.196Z,45.72
2023-04-09T02:06:49.494Z,48.30
2023-04-09T02:08:30.813Z,48.66
2023-04-09T02:10:12.201Z,47.04
2023-04-09T02:11:53.499Z,46.17
2023-04-09T02:13:34.846Z,46.65
2023-04-09T02:15:16.143Z,48.94
2023-04-09T02:16:57.429Z,46.54
2023-04-09T02:18:38.734Z,47.56
2023-04-09T02:20:20.042Z,47.56
2023-04-09T02:22:01.342Z,49.59
2023-04-09T02:23:42.653Z,49.15
2023-04-09T02:25:23.943Z,48.50
2023-04-09T02:27:05.241Z,47.40
2023-04-09T02:28:46.532Z,46.40
2023-04-09T02:30:27.837Z,47.68
2023-04-09T02:32:09.167Z,48.73
2023-04-09T02:33:50.457Z,49.27
2023-04-09T02:35:31.768Z,48.31
2023-04-09T02:37:13.121Z,48.23
2023-04-09T02:38:54.470Z,49.19
2023-04-09T02:40:35.823Z,48.96
2023-04-09T02:42:17.123Z,47.39
2023-04-09T02:43:58.444Z,48.71
2023-04-09T02:45:39.732Z,48.51
2023-04-09T02:47:21.154Z,49.46
2023-04-09T02:49:02.456Z,48.01
2023-04-09T02:50:43.761Z,47.70
2023-04-09T02:52:25.065Z,47.38
2023-04-09T02:54:06.351Z,46.76
2023-04-09T02:55:47.621Z,47.17
2023-04-09T02:57:28.922Z,47.43
2023-04-09T02:59:10.222Z,47.22
2023-04-09T03:00:51.510Z,44.57
2023-04-09T03:02:32.915Z,44.70
2023-04-09T03:04:14.329Z,46.52
2023-04-09T03:05:55.625Z,43.72
2023-04-09T03:07:36.924Z,46.32
2023-04-09T03:09:18.233Z,45.36
2023-04-09T03:10:59.572Z,46.41
2023-04-09T03:12:40.893Z,45.51
2023-04-09T03:14:22.191Z,44.18
2023-04-09T03:16:03.472Z,45.11
2023-04-09T03:17:44.813Z,44.37
2023-04-09T03:19:26.127Z,45.42
2023-04-09T03:21:07.477Z,44.55
2023-04-09T03:22:48.805Z,43.91
2023-04-09T03:24:30.100Z,45.06
2023-04-09T03:26:11.414Z,43.02
2023-04-09T03:27:52.740Z,42.30
2023-04-09T03:29:34.082Z,44.36
2023-04-09T03:31:15.419Z,42.70
2023-04-09T03:32:56.789Z,43.70
2023-04-09T03:34:38.135Z,44.23
2023-04-09T03:36:19.439Z,45.87
2023-04-09T03:38:00.713Z,45.63
2023-04-09T03:39:41.990Z,44.13
2023-04-09T03:41:23.312Z,44.60
2023-04-09T03:43:04.607Z,45.04
2023-04-09T03:44:45.900Z,44.88
2023-04-09T03:46:27.361Z,45.01
2023-04-09T03:48:08.691Z,43.84
2023-04-09T03:49:49.950Z,43.56
2023-04-09T03:51:31.235Z,45.15
2023-04-09T03:53:12.517Z,45.37
2023-04-09T03:54:53.822Z,46.09
2023-04-09T03:56:35.121Z,47.37
2023-04-09T03:58:16.418Z,45.12
2023-04-09T03:59:57.721Z,45.67
2023-04-09T04:01:39.070Z,45.00
2023-04-09T04:03:20.576Z,43.36
2023-04-09T04:05:01.946Z,40.56
2023-04-09T04:06:43.237Z,41.05
2023-04-09T04:08:24.583Z,42.03
2023-04-09T04:10:05.925Z,41.48
2023-04-09T04:11:47.231Z,42.01
2023-04-09T04:13:28.580Z,41.26
2023-04-09T04:15:09.945Z,41.14
2023-04-09T04:16:51.228Z,43.15
2023-04-09T04:18:32.497Z,43.01
2023-04-09T04:20:13.823Z,40.87
2023-04-09T04:21:55.107Z,43.01
2023-04-09T04:23:36.382Z,43.30
2023-04-09T04:25:17.705Z,42.27
2023-04-09T04:26:58.985Z,40.96
2023-04-09T04:28:40.287Z,41.28
2023-04-09T04:30:21.607Z,41.08
2023-04-09T04:32:02.953Z,41.20
2023-04-09T04:33:44.253Z,39.28
2023-04-09T04:35:25.576Z,39.87
2023-04-09T04:37:06.900Z,41.21
2023-04-09T04:38:48.270Z,42.69
2023-04-09T04:40:29.697Z,42.15
2023-04-09T04:42:11.017Z,42.38
2023-04-09T04:43:52.350Z,42.45
2023-04-09T04:45:33.668Z,41.16
2023-04-09T04:47:15.016Z,41.24
2023-04-09T04:48:56.294Z,44.69
2023-04-09T04:50:37.609Z,41.52
2023-04-09T04:52:18.955Z,44.53
2023-04-09T04:54:00.258Z,45.79
2023-04-09T04:55:41.545Z,44.46
2023-04-09T04:57:22.850Z,44.46
2023-04-09T04:59:04.139Z,43.47
2023-04-09T05:00:45.462Z,44.12
2023-04-09T05:02:26.911Z,43.09
2023-04-09T05:04:08.317Z,41.45
2023-04-09T05:05:49.634Z,41.78
2023-04-09T05:07:30.907Z,43.30
2023-04-09T05:09:12.236Z,43.54
2023-04-09T05:10:53.507Z,42.61
2023-04-09T05:12:34.805Z,40.18
2023-04-09T05:14:16.248Z,38.05
2023-04-09T05:15:57.585Z,38.42
2023-04-09T05:17:38.895Z,41.45
2023-04-09T05:19:20.198Z,40.98
2023-04-09T05:21:01.463Z,40.09
2023-04-09T05:22:42.804Z,41.72
2023-04-09T05:24:24.128Z,43.21
2023-04-09T05:26:05.427Z,40.64
2023-04-09T05:27:46.792Z,41.07
2023-04-09T05:29:28.136Z,42.14
2023-04-09T05:31:09.508Z,42.09
2023-04-09T05:32:50.861Z,43.60
2023-04-09T05:34:32.242Z,44.46
2023-04-09T05:36:13.628Z,44.92
2023-04-09T05:37:55.026Z,40.25
2023-04-09T05:39:36.338Z,43.30
2023-04-09T05:41:17.762Z,41.94
2023-04-09T05:42:59.094Z,43.17
2023-04-09T05:44:40.409Z,43.04
2023-04-09T05:46:21.746Z,41.63
2023-04-09T05:48:03.069Z,42.02
2023-04-09T05:49:44.436Z,42.42
2023-04-09T05:51:25.760Z,42.64
2023-04-09T05:53:07.119Z,40.39
2023-04-09T05:54:48.410Z,35.54
2023-04-09T05:56:29.676Z,34.63
2023-04-09T05:58:11.002Z,36.70
2023-04-09T05:59:52.289Z,37.41
2023-04-09T06:01:34.266Z,38.13
2023-04-09T06:03:15.859Z,37.71
2023-04-09T06:04:57.411Z,37.12
2023-04-09T06:06:38.782Z,37.74
2023-04-09T06:08:20.123Z,36.80
2023-04-09T06:10:01.540Z,37.67
2023-04-09T06:11:42.835Z,37.83
2023-04-09T06:13:24.094Z,40.28
2023-04-09T06:15:05.546Z,39.52
2023-04-09T06:16:46.859Z,39.73
2023-04-09T06:18:28.138Z,40.79
2023-04-09T06:20:09.522Z,36.27
2023-04-09T06:21:50.848Z,35.91
2023-04-09T06:23:32.732Z,34.35
2023-04-09T06:25:14.384Z,38.76
2023-04-09T06:26:55.671Z,39.00
2023-04-09T06:28:36.978Z,38.81
2023-04-09T06:30:18.282Z,39.70
2023-04-09T06:31:59.586Z,39.53
2023-04-09T06:33:40.939Z,40.00
2023-04-09T06:35:22.290Z,38.90
2023-04-09T06:37:04.413Z,37.97
2023-04-09T06:38:48.397Z,37.12
2023-04-09T06:40:29.690Z,34.47
2023-04-09T06:42:10.958Z,32.93
2023-04-09T06:43:52.582Z,33.80
2023-04-09T06:45:34.174Z,38.35
2023-04-09T06:47:15.530Z,37.49
2023-04-09T06:48:56.827Z,38.01
2023-04-09T06:50:38.131Z,35.09
2023-04-09T06:52:19.438Z,35.49
2023-04-09T06:54:00.814Z,33.24
2023-04-09T06:55:42.481Z,35.25
2023-04-09T06:57:24.161Z,35.96
2023-04-09T06:59:05.627Z,34.68
2023-04-09T07:00:46.989Z,37.96
2023-04-09T07:02:28.522Z,37.73
2023-04-09T07:04:10.046Z,36.97
2023-04-09T07:05:51.474Z,37.86
2023-04-09T07:07:32.918Z,40.23
2023-04-09T07:09:14.231Z,37.20
2023-04-09T07:10:55.536Z,34.24
2023-04-09T07:12:36.865Z,35.67
2023-04-09T07:14:18.235Z,35.37
2023-04-09T07:15:59.547Z,36.49
2023-04-09T07:17:40.868Z,30.79
2023-04-09T07:19:22.566Z,30.37
2023-04-09T07:21:04.420Z,29.54
2023-04-09T07:22:45.730Z,30.56
2023-04-09T07:24:27.060Z,33.48
2023-04-09T07:26:08.369Z,33.41
2023-04-09T07:27:49.640Z,34.69
2023-04-09T07:29:30.926Z,34.37
2023-04-09T07:31:12.247Z,33.25
2023-04-09T07:32:54.356Z,32.00
2023-04-09T07:34:35.977Z,31.55
2023-04-09T07:36:17.303Z,30.97
2023-04-09T07:37:58.612Z,31.44
2023-04-09T07:39:39.887Z,31.41
2023-04-09T07:41:21.184Z,31.65
2023-04-09T07:43:02.507Z,30.47
2023-04-09T07:44:43.802Z,29.40
2023-04-09T07:46:25.134Z,28.52
2023-04-09T07:48:06.571Z,28.12
2023-04-09T07:49:47.871Z,29.03
2023-04-09T07:51:30.575Z,27.95
2023-04-09T07:53:12.150Z,27.36
2023-04-09T07:54:53.463Z,25.85
2023-04-09T07:56:34.784Z,26.39
2023-04-09T07:58:16.061Z,27.39
2023-04-09T07:59:57.413Z,26.89
2023-04-09T08:01:38.794Z,25.51
2023-04-09T08:03:20.350Z,25.29
2023-04-09T08:05:01.868Z,25.24
2023-04-09T08:06:43.282Z,25.87
2023-04-09T08:08:24.596Z,24.39
2023-04-09T08:10:05.888Z,22.41
2023-04-09T08:11:47.193Z,22.82
2023-04-09T08:13:28.475Z,22.80
2023-04-09T08:15:09.801Z,23.06
2023-04-09T08:16:51.216Z,21.44
2023-04-09T08:18:32.545Z,22.13
2023-04-09T08:20:13.832Z,22.18
2023-04-09T08:21:55.140Z,19.95
2023-04-09T08:23:36.451Z,19.38
2023-04-09T08:25:17.751Z,20.23
2023-04-09T08:26:59.086Z,19.83
2023-04-09T08:28:40.353Z,19.35
2023-04-09T08:30:23.739Z,18.48
2023-04-09T08:32:05.155Z,17.88
2023-04-09T08:33:46.473Z,18.25
2023-04-09T08:35:27.784Z,18.15
2023-04-09T08:37:09.107Z,17.47
2023-04-09T08:38:50.457Z,16.67
2023-04-09T08:40:31.793Z,16.73
2023-04-09T08:42:13.127Z,15.93
2023-04-09T08:43:58.227Z,15.40
2023-04-09T08:45:40.421Z,16.16
2023-04-09T08:47:21.869Z,14.96
2023-04-09T08:49:03.240Z,15.12
2023-04-09T08:50:44.547Z,15.19
2023-04-09T08:52:25.900Z,14.71
2023-04-09T08:54:07.194Z,13.58
2023-04-09T08:55:48.489Z,13.58
2023-04-09T08:57:29.811Z,14.44
2023-04-09T08:59:11.152Z,13.54
2023-04-09T09:00:52.523Z,14.92
2023-04-09T09:02:34.206Z,13.74
2023-04-09T09:04:16.143Z,13.95
2023-04-09T09:05:57.751Z,14.69
2023-04-09T09:07:39.169Z,13.38
2023-04-09T09:09:20.624Z,13.65
2023-04-09T09:11:01.914Z,14.18
2023-04-09T09:12:43.393Z,13.81
2023-04-09T09:14:24.877Z,13.70
2023-04-09T09:16:06.213Z,14.58
2023-04-09T09:17:47.532Z,15.37
2023-04-09T09:19:30.819Z,15.00
2023-04-09T09:21:15.113Z,15.95
2023-04-09T09:22:56.745Z,15.79
2023-04-09T09:24:38.792Z,15.81
2023-04-09T09:26:20.351Z,16.15
2023-04-09T09:28:01.656Z,16.54
2023-04-09T09:29:43.011Z,17.16
2023-04-09T09:31:24.403Z,15.53
2023-04-09T09:33:05.764Z,15.63
2023-04-09T09:34:47.074Z,14.79
2023-04-09T09:36:28.457Z,13.57
2023-04-09T09:38:09.805Z,14.48
2023-04-09T09:39:52.350Z,14.18
2023-04-09T09:41:33.710Z,14.13
2023-04-09T09:43:15.047Z,13.53
2023-04-09T09:44:56.361Z,13.43
2023-04-09T09:46:37.675Z,14.31
2023-04-09T09:48:19.045Z,14.13
2023-04-09T09:50:00.409Z,14.96
2023-04-09T09:51:41.751Z,15.85
2023-04-09T09:53:23.064Z,16.50
2023-04-09T09:55:04.358Z,16.52
2023-04-09T09:56:45.642Z,16.66
2023-04-09T09:58:26.959Z,15.82
2023-04-09T10:00:08.298Z,15.28
2023-04-09T10:01:49.626Z,16.51
2023-04-09T10:03:31.113Z,16.72
2023-04-09T10:05:12.472Z,16.16
2023-04-09T10:06:53.750Z,15.11
2023-04-09T10:08:35.157Z,14.88
2023-04-09T10:10:16.557Z,14.41
2023-04-09T10:11:57.885Z,14.82
2023-04-09T10:13:39.204Z,14.29
2023-04-09T10:15:20.666Z,14.26
2023-04-09T10:17:01.942Z,14.97
2023-04-09T10:18:43.243Z,15.17
2023-04-09T10:20:24.668Z,16.05
2023-04-09T10:22:05.999Z,15.89
2023-04-09T10:23:47.293Z,16.06
2023-04-09T10:25:28.593Z,16.35
2023-04-09T10:27:09.916Z,16.58
2023-04-09T10:28:51.379Z,16.71
2023-04-09T10:30:32.908Z,15.51
2023-04-09T10:32:14.333Z,16.23
2023-04-09T10:33:55.641Z,15.90
2023-04-09T10:35:36.944Z,16.07
2023-04-09T10:37:18.269Z,15.74
2023-04-09T10:38:59.913Z,16.76
2023-04-09T10:40:41.209Z,14.61
2023-04-09T10:42:22.537Z,14.96
2023-04-09T10:44:03.870Z,14.95
2023-04-09T10:45:45.183Z,14.42
2023-04-09T10:47:26.738Z,13.94
2023-04-09T10:49:08.243Z,13.01
2023-04-09T10:50:49.600Z,12.26
2023-04-09T10:52:30.891Z,12.16
2023-04-09T10:54:12.173Z,14.19
2023-04-09T10:55:53.538Z,14.63
2023-04-09T10:57:34.864Z,13.19
2023-04-09T10:59:16.882Z,14.70
2023-04-09T11:00:58.472Z,14.87
2023-04-09T11:02:40.242Z,14.35
2023-04-09T11:04:21.832Z,14.42
2023-04-09T11:06:03.130Z,14.81
2023-04-09T11:07:44.615Z,15.06
2023-04-09T11:09:26.158Z,14.64
2023-04-09T11:11:07.472Z,14.21
2023-04-09T11:12:48.776Z,15.28
2023-04-09T11:14:30.113Z,14.59
2023-04-09T11:16:11.444Z,15.00
2023-04-09T11:17:53.029Z,14.50
2023-04-09T11:19:34.379Z,14.92
2023-04-09T11:21:15.670Z,15.35
2023-04-09T11:22:56.935Z,15.90
2023-04-09T11:24:38.225Z,15.22
2023-04-09T11:26:19.506Z,15.08
2023-04-09T11:28:00.802Z,15.13
2023-04-09T11:29:42.086Z,15.22
2023-04-09T11:31:23.617Z,15.41
2023-04-09T11:33:05.288Z,15.77
2023-04-09T11:34:46.671Z,15.86
2023-04-09T11:36:28.004Z,15.59
2023-04-09T11:38:09.272Z,15.01
2023-04-09T11:39:50.578Z,14.67
2023-04-09T11:41:31.893Z,16.68
2023-04-09T11:43:13.207Z,14.15
2023-04-09T11:44:54.494Z,14.76
2023-04-09T11:46:35.935Z,14.80
2023-04-09T11:48:17.346Z,14.48
2023-04-09T11:49:58.667Z,14.75
2023-04-09T11:51:40.580Z,15.65
2023-04-09T11:53:21.892Z,14.06
2023-04-09T11:55:04.054Z,15.13
2023-04-09T11:56:45.703Z,15.35
2023-04-09T11:58:26.985Z,15.15
2023-04-09T12:00:08.290Z,13.78
2023-04-09T12:01:49.691Z,15.56
2023-04-09T12:03:31.251Z,14.20
2023-04-09T12:05:12.791Z,15.07
2023-04-09T12:06:54.133Z,13.73
2023-04-09T12:08:35.458Z,15.92
2023-04-09T12:10:16.765Z,15.31
2023-04-09T12:11:58.745Z,15.06
2023-04-09T12:13:40.635Z,13.69
2023-04-09T12:15:22.009Z,15.12
2023-04-09T12:17:03.492Z,15.72
2023-04-09T12:18:44.893Z,15.38
2023-04-09T12:20:26.209Z,13.52
2023-04-09T12:22:07.690Z,13.88
2023-04-09T12:23:49.224Z,14.13
2023-04-09T12:25:30.570Z,13.46
2023-04-09T12:27:11.833Z,12.24
2023-04-09T12:28:53.594Z,12.95
2023-04-09T12:30:35.297Z,13.57
2023-04-09T12:32:16.669Z,12.75
2023-04-09T12:33:57.968Z,13.72
2023-04-09T12:35:39.451Z,14.69
2023-04-09T12:37:20.815Z,12.91
2023-04-09T12:39:02.170Z,12.09
2023-04-09T12:40:43.453Z,11.76
2023-04-09T12:42:24.743Z,13.08
2023-04-09T12:44:06.064Z,13.86
2023-04-09T12:45:47.418Z,11.43
2023-04-09T12:47:28.732Z,10.72
2023-04-09T12:49:10.044Z,12.62
2023-04-09T12:50:51.348Z,12.92
2023-04-09T12:52:32.616Z,14.29
2023-04-09T12:54:13.925Z,13.45
2023-04-09T12:55:55.255Z,13.36
2023-04-09T12:57:36.550Z,14.45
2023-04-09T12:59:17.853Z,13.57
2023-04-09T13:00:59.178Z,13.60
2023-04-09T13:02:40.719Z,14.62
2023-04-09T13:04:22.344Z,11.93
2023-04-09T13:06:07.047Z,12.73
2023-04-09T13:07:48.342Z,11.01
2023-04-09T13:09:29.861Z,10.38
2023-04-09T13:11:11.183Z,11.29
2023-04-09T13:12:52.480Z,11.79
2023-04-09T13:14:33.810Z,13.11
2023-04-09T13:16:15.106Z,12.01
2023-04-09T13:17:56.433Z,11.63
2023-04-09T13:19:37.759Z,9.58
2023-04-09T13:21:19.072Z,9.21
2023-04-09T13:23:00.422Z,10.16
2023-04-09T13:24:41.736Z,10.72
2023-04-09T13:26:23.062Z,11.54
2023-04-09T13:28:04.529Z,12.84
2023-04-09T13:29:45.851Z,14.10
2023-04-09T13:31:27.232Z,12.88
2023-04-09T13:33:08.613Z,12.65
2023-04-09T13:34:49.929Z,14.95
2023-04-09T13:36:31.266Z,14.97
2023-04-09T13:38:14.036Z,15.46
2023-04-09T13:39:56.262Z,14.03
2023-04-09T13:41:37.712Z,14.30
2023-04-09T13:43:19.257Z,14.42
2023-04-09T13:45:00.769Z,12.12
2023-04-09T13:46:42.361Z,14.33
2023-04-09T13:48:23.796Z,14.02
2023-04-09T13:50:05.102Z,13.84
2023-04-09T13:51:46.681Z,13.28
2023-04-09T13:53:28.406Z,12.30
2023-04-09T13:55:09.861Z,13.38
2023-04-09T13:56:51.174Z,13.58
2023-04-09T13:58:32.476Z,13.23
2023-04-09T14:00:14.137Z,13.69
2023-04-09T14:01:55.644Z,14.03
2023-04-09T14:03:37.118Z,14.31
2023-04-09T14:05:19.140Z,13.72
2023-04-09T14:07:00.725Z,14.64
2023-04-09T14:08:42.208Z,14.60
2023-04-09T14:10:23.589Z,13.84
2023-04-09T14:12:04.982Z,14.56
2023-04-09T14:13:46.308Z,14.08
2023-04-09T14:15:27.608Z,14.66
2023-04-09T14:17:08.897Z,14.15
2023-04-09T14:18:50.252Z,13.85
2023-04-09T14:20:31.626Z,14.40
2023-04-09T14:22:12.967Z,14.13
2023-04-09T14:23:54.288Z,14.55
2023-04-09T14:25:35.641Z,13.68
2023-04-09T14:27:19.899Z,13.42
2023-04-09T14:29:01.776Z,13.97
2023-04-09T14:30:43.176Z,14.02
2023-04-09T14:32:24.526Z,13.97
2023-04-09T14:34:05.898Z,14.62
2023-04-09T14:35:47.404Z,14.12
2023-04-09T14:37:28.881Z,13.72
2023-04-09T14:39:10.189Z,14.83
2023-04-09T14:40:51.500Z,15.14
2023-04-09T14:42:32.796Z,14.73
2023-04-09T14:44:14.218Z,15.06
2023-04-09T14:45:55.541Z,14.85
2023-04-09T14:47:37.611Z,15.27
2023-04-09T14:49:19.226Z,16.32
2023-04-09T14:51:00.568Z,16.16
2023-04-09T14:52:41.857Z,14.80
2023-04-09T14:54:23.448Z,16.22
2023-04-09T14:56:04.975Z,15.85
2023-04-09T14:57:46.376Z,17.13
2023-04-09T14:59:27.902Z,16.23
2023-04-09T15:01:09.768Z,15.76
2023-04-09T15:02:51.180Z,15.98
2023-04-09T15:04:32.926Z,15.15
2023-04-09T15:06:14.289Z,14.87
2023-04-09T15:07:55.712Z,14.75
2023-04-09T15:09:37.107Z,14.25
2023-04-09T15:11:18.425Z,14.62
2023-04-09T15:13:00.009Z,15.15
2023-04-09T15:14:41.513Z,14.73
2023-04-09T15:16:22.830Z,14.88
2023-04-09T15:18:04.227Z,13.99
2023-04-09T15:19:45.849Z,14.24
2023-04-09T15:21:27.323Z,16.03
2023-04-09T15:23:08.675Z,16.80
2023-04-09T15:24:50.254Z,16.07
2023-04-09T15:26:31.937Z,15.68
2023-04-09T15:28:13.445Z,15.98
2023-04-09T15:29:54.896Z,15.03
2023-04-09T15:31:36.184Z,15.10
2023-04-09T15:33:17.517Z,15.77
2023-04-09T15:34:58.865Z,16.38
2023-04-09T15:36:40.197Z,14.65
2023-04-09T15:38:21.506Z,16.27
2023-04-09T15:40:02.798Z,16.02
2023-04-09T15:41:44.089Z,17.49
2023-04-09T15:43:25.366Z,17.66
2023-04-09T15:45:06.668Z,17.58
2023-04-09T15:46:48.696Z,16.93
2023-04-09T15:48:30.314Z,17.47
2023-04-09T15:50:11.657Z,18.03
2023-04-09T15:51:53.156Z,17.94
2023-04-09T15:53:34.582Z,17.53
2023-04-09T15:55:15.941Z,18.23
2023-04-09T15:56:57.218Z,18.73
2023-04-09T15:58:38.766Z,18.79
2023-04-09T16:00:20.311Z,18.79
2023-04-09T16:02:01.861Z,18.98
2023-04-09T16:03:43.373Z,19.89
2023-04-09T16:05:24.940Z,19.74
2023-04-09T16:07:06.410Z,20.20
2023-04-09T16:08:47.697Z,19.41
2023-04-09T16:10:28.982Z,19.91
2023-04-09T16:12:10.381Z,21.29
2023-04-09T16:13:51.664Z,21.00
2023-04-09T16:15:32.968Z,20.45
2023-04-09T16:17:14.276Z,20.54
2023-04-09T16:18:55.804Z,20.71
2023-04-09T16:20:37.195Z,20.64
2023-04-09T16:22:18.669Z,21.91
2023-04-09T16:23:59.977Z,21.37
2023-04-09T16:25:41.924Z,21.73
2023-04-09T16:27:23.505Z,21.37
2023-04-09T16:29:04.798Z,22.22
2023-04-09T16:30:46.092Z,22.36
2023-04-09T16:32:27.546Z,22.09
2023-04-09T16:34:08.947Z,23.06
2023-04-09T16:35:50.267Z,23.96
2023-04-09T16:37:31.596Z,24.59
2023-04-09T16:39:12.988Z,22.64
2023-04-09T16:40:54.299Z,23.92
2023-04-09T16:42:35.575Z,25.23
2023-04-09T16:44:16.845Z,25.07
2023-04-09T16:45:58.254Z,23.56
2023-04-09T16:47:39.684Z,24.91
2023-04-09T16:49:21.092Z,24.89
2023-04-09T16:51:02.418Z,25.10
2023-04-09T16:52:43.732Z,24.41
2023-04-09T16:54:25.070Z,25.51
2023-04-09T16:56:06.384Z,24.55
2023-04-09T16:57:47.689Z,24.32
2023-04-09T16:59:29.024Z,24.53
2023-04-09T17:01:10.327Z,25.16
2023-04-09T17:02:51.895Z,27.16
2023-04-09T17:04:33.607Z,27.93
2023-04-09T17:06:15.022Z,27.92
2023-04-09T17:07:56.342Z,27.01
2023-04-09T17:09:37.666Z,26.54
2023-04-09T17:11:18.951Z,27.15
2023-04-09T17:13:00.246Z,26.16
2023-04-09T17:14:41.589Z,26.10
2023-04-09T17:16:22.948Z,26.75
2023-04-09T17:18:04.385Z,27.01
2023-04-09T17:19:45.750Z,26.57
2023-04-09T17:21:27.062Z,26.40
2023-04-09T17:23:08.977Z,26.80
2023-04-09T17:24:50.338Z,27.29
2023-04-09T17:26:31.654Z,27.85
2023-04-09T17:28:13.071Z,28.44
2023-04-09T17:29:54.581Z,29.49
2023-04-09T17:31:35.914Z,28.86
2023-04-09T17:33:17.263Z,28.87
2023-04-09T17:34:58.902Z,27.90
2023-04-09T17:36:40.485Z,28.27
2023-04-09T17:38:21.804Z,27.72
2023-04-09T17:40:03.073Z,26.88
2023-04-09T17:41:44.662Z,27.68
2023-04-09T17:43:26.334Z,28.18
2023-04-09T17:45:07.780Z,28.87
2023-04-09T17:46:49.324Z,28.84
2023-04-09T17:48:32.025Z,28.22
2023-04-09T17:50:13.667Z,28.29
2023-04-09T17:51:55.222Z,28.29
2023-04-09T17:53:36.596Z,29.09
2023-04-09T17:55:17.962Z,29.09
2023-04-09T17:56:59.350Z,29.13
2023-04-09T17:58:40.655Z,29.35
2023-04-09T18:00:21.971Z,29.06
2023-04-09T18:02:03.417Z,28.53
2023-04-09T18:03:45.158Z,28.88
2023-04-09T18:05:26.939Z,28.97
2023-04-09T18:07:08.332Z,29.54
2023-04-09T18:08:49.786Z,30.33
2023-04-09T18:10:31.200Z,30.66
2023-04-09T18:12:12.517Z,30.53
2023-04-09T18:13:53.832Z,30.10
2023-04-09T18:15:35.165Z,30.04
2023-04-09T18:17:16.583Z,29.58
2023-04-09T18:18:57.878Z,29.71
2023-04-09T18:20:39.825Z,30.01
2023-04-09T18:22:21.466Z,30.71
2023-04-09T18:24:02.795Z,30.39
2023-04-09T18:25:44.364Z,30.35
2023-04-09T18:27:26.132Z,30.13
2023-04-09T18:29:07.548Z,30.31
2023-04-09T18:30:49.083Z,31.35
2023-04-09T18:32:30.658Z,32.49
2023-04-09T18:34:12.220Z,32.06
2023-04-09T18:35:53.828Z,32.44
2023-04-09T18:37:35.396Z,32.25
2023-04-09T18:39:16.676Z,32.01
2023-04-09T18:40:58.218Z,31.34
2023-04-09T18:42:39.743Z,34.11
2023-04-09T18:44:21.019Z,33.71
2023-04-09T18:46:02.322Z,33.88
2023-04-09T18:47:43.703Z,35.06
2023-04-09T18:49:25.028Z,35.10
2023-04-09T18:51:06.344Z,35.22
2023-04-09T18:52:47.630Z,35.69
2023-04-09T18:54:28.919Z,35.15
2023-04-09T18:56:10.241Z,35.74
2023-04-09T18:57:51.545Z,35.83
2023-04-09T18:59:33.033Z,35.55
2023-04-09T19:01:14.924Z,36.40
2023-04-09T19:02:56.806Z,37.93
2023-04-09T19:04:38.401Z,36.78
2023-04-09T19:06:20.543Z,34.73
2023-04-09T19:08:01.845Z,35.86
2023-04-09T19:09:43.141Z,34.65
2023-04-09T19:11:24.453Z,35.13
2023-04-09T19:13:05.757Z,36.13
2023-04-09T19:14:47.111Z,35.23
2023-04-09T19:16:29.070Z,35.88
2023-04-09T19:18:10.542Z,33.84
2023-04-09T19:19:51.856Z,34.42
2023-04-09T19:21:33.184Z,34.53
2023-04-09T19:23:14.450Z,34.31
2023-04-09T19:24:55.799Z,33.83
2023-04-09T19:26:37.181Z,34.39
2023-04-09T19:28:18.710Z,34.69
2023-04-09T19:30:00.331Z,36.46
2023-04-09T19:31:41.858Z,34.40
2023-04-09T19:33:23.258Z,36.29
2023-04-09T19:35:04.736Z,34.42
2023-04-09T19:36:46.034Z,35.21
2023-04-09T19:38:27.328Z,38.67
2023-04-09T19:40:08.815Z,37.18
2023-04-09T19:41:50.110Z,39.06
2023-04-09T19:43:31.416Z,38.37
2023-04-09T19:45:13.035Z,37.76
2023-04-09T19:46:54.613Z,39.45
2023-04-09T19:48:35.917Z,37.71
2023-04-09T19:50:17.448Z,38.57
2023-04-09T19:51:58.975Z,38.71
2023-04-09T19:53:40.477Z,40.14
2023-04-09T19:55:22.138Z,40.17
2023-04-09T19:57:03.520Z,39.22
2023-04-09T19:58:44.827Z,39.25
2023-04-09T20:00:26.280Z,38.90
2023-04-09T20:02:07.765Z,39.42
2023-04-09T20:03:49.555Z,36.55
2023-04-09T20:05:31.027Z,39.78
2023-04-09T20:07:12.396Z,39.87
2023-04-09T20:08:54.424Z,38.52
2023-04-09T20:10:36.289Z,38.15
2023-04-09T20:12:17.804Z,38.04
2023-04-09T20:13:59.160Z,37.82
2023-04-09T20:15:40.482Z,39.03
2023-04-09T20:17:21.815Z,38.12
2023-04-09T20:19:03.108Z,37.72
2023-04-09T20:20:44.485Z,39.10
2023-04-09T20:22:25.804Z,38.31
2023-04-09T20:24:07.141Z,38.43
2023-04-09T20:25:48.463Z,38.76
2023-04-09T20:27:29.860Z,39.64
2023-04-09T20:29:12.456Z,39.00
2023-04-09T20:30:53.968Z,38.59
2023-04-09T20:32:35.273Z,38.07
2023-04-09T20:34:16.625Z,39.50
2023-04-09T20:35:58.067Z,39.55
2023-04-09T20:37:39.378Z,40.56
2023-04-09T20:39:20.685Z,40.01
2023-04-09T20:41:02.004Z,39.37
2023-04-09T20:42:43.273Z,40.73
2023-04-09T20:44:24.589Z,40.34
2023-04-09T20:46:06.079Z,40.05
2023-04-09T20:47:47.571Z,39.39
2023-04-09T20:49:28.967Z,39.65
2023-04-09T20:51:10.323Z,37.71
2023-04-09T20:52:51.632Z,40.74
2023-04-09T20:54:32.946Z,38.26
2023-04-09T20:56:14.369Z,37.45
2023-04-09T20:57:55.693Z,38.82
2023-04-09T20:59:36.964Z,39.39
2023-04-09T21:01:18.301Z,35.99
2023-04-09T21:02:59.812Z,39.29
2023-04-09T21:04:41.145Z,37.41
2023-04-09T21:06:22.469Z,37.29
2023-04-09T21:08:03.765Z,36.91
2023-04-09T21:09:45.030Z,37.98
2023-04-09T21:11:26.386Z,35.01
2023-04-09T21:13:07.726Z,36.76
2023-04-09T21:14:49.033Z,36.73
2023-04-09T21:16:30.392Z,35.99
2023-04-09T21:18:11.708Z,37.67
2023-04-09T21:19:53.063Z,34.95
2023-04-09T21:21:34.411Z,36.96
2023-04-09T21:23:15.759Z,34.21
2023-04-09T21:24:57.106Z,34.98
2023-04-09T21:26:50.038Z,35.63
2023-04-09T21:28:33.252Z,33.90
2023-04-09T21:30:14.574Z,35.03
2023-04-09T21:31:55.872Z,34.50
2023-04-09T21:33:37.172Z,33.84
2023-04-09T21:35:18.442Z,35.11
2023-04-09T21:36:59.738Z,35.04
2023-04-09T21:38:41.056Z,36.76
2023-04-09T21:40:22.540Z,34.94
2023-04-09T21:42:03.833Z,33.85
2023-04-09T21:43:45.131Z,33.71
2023-04-09T21:45:26.536Z,35.20
2023-04-09T21:47:07.842Z,34.04